sensor_id;sensor_type;location;lat;lon;timestamp;temperature;humidity
1361;DHT22;674;45.552;-122.600;2024-02-15T00:00:13;3.80;73.40
1361;DHT22;674;45.552;-122.600;2024-02-15T00:02:43;4.00;69.60
1361;DHT22;674;45.552;-122.600;2024-02-15T00:05:13;3.70;74.00
1361;DHT22;674;45.552;-122.600;2024-02-15T00:07:43;3.70;72.60
1361;DHT22;674;45.552;-122.600;2024-02-15T00:10:12;3.80;77.70
1361;DHT22;674;45.552;-122.600;2024-02-15T00:12:41;3.80;87.90
1361;DHT22;674;45.552;-122.600;2024-02-15T00:15:09;3.80;86.30
1361;DHT22;674;45.552;-122.600;2024-02-15T00:17:40;3.80;88.30
1361;DHT22;674;45.552;-122.600;2024-02-15T00:20:09;4.00;87.30
1361;DHT22;674;45.552;-122.600;2024-02-15T00:22:39;3.90;84.60
1361;DHT22;674;45.552;-122.600;2024-02-15T00:25:10;3.80;91.10
1361;DHT22;674;45.552;-122.600;2024-02-15T00:27:39;3.80;91.10
1361;DHT22;674;45.552;-122.600;2024-02-15T00:30:09;3.90;91.80
1361;DHT22;674;45.552;-122.600;2024-02-15T00:32:38;3.90;91.60
1361;DHT22;674;45.552;-122.600;2024-02-15T00:35:07;3.80;89.60
1361;DHT22;674;45.552;-122.600;2024-02-15T00:37:40;3.80;86.50
1361;DHT22;674;45.552;-122.600;2024-02-15T00:40:09;3.80;90.50
1361;DHT22;674;45.552;-122.600;2024-02-15T00:42:37;3.80;90.40
1361;DHT22;674;45.552;-122.600;2024-02-15T00:45:07;4.00;88.40
1361;DHT22;674;45.552;-122.600;2024-02-15T00:47:37;3.80;85.40
1361;DHT22;674;45.552;-122.600;2024-02-15T00:50:10;3.80;84.70
1361;DHT22;674;45.552;-122.600;2024-02-15T00:52:39;3.70;85.80
1361;DHT22;674;45.552;-122.600;2024-02-15T00:55:07;3.80;80.40
1361;DHT22;674;45.552;-122.600;2024-02-15T00:57:36;3.70;81.80
1361;DHT22;674;45.552;-122.600;2024-02-15T01:00:05;3.70;76.00
1361;DHT22;674;45.552;-122.600;2024-02-15T01:02:37;3.80;83.00
1361;DHT22;674;45.552;-122.600;2024-02-15T01:05:06;3.70;79.90
1361;DHT22;674;45.552;-122.600;2024-02-15T01:07:35;3.90;88.70
1361;DHT22;674;45.552;-122.600;2024-02-15T01:10:03;3.70;70.30
1361;DHT22;674;45.552;-122.600;2024-02-15T01:12:34;3.70;75.30
1361;DHT22;674;45.552;-122.600;2024-02-15T01:15:02;4.00;78.40
1361;DHT22;674;45.552;-122.600;2024-02-15T01:17:31;3.80;78.90
1361;DHT22;674;45.552;-122.600;2024-02-15T01:20:00;3.90;83.50
1361;DHT22;674;45.552;-122.600;2024-02-15T01:22:28;3.60;83.40
1361;DHT22;674;45.552;-122.600;2024-02-15T01:24:57;3.60;87.70
1361;DHT22;674;45.552;-122.600;2024-02-15T01:27:26;3.70;88.10
1361;DHT22;674;45.552;-122.600;2024-02-15T01:29:57;4.00;94.30
1361;DHT22;674;45.552;-122.600;2024-02-15T01:32:26;3.90;93.00
1361;DHT22;674;45.552;-122.600;2024-02-15T01:34:55;3.80;87.90
1361;DHT22;674;45.552;-122.600;2024-02-15T01:37:24;3.90;90.00
1361;DHT22;674;45.552;-122.600;2024-02-15T01:39:52;3.70;91.20
1361;DHT22;674;45.552;-122.600;2024-02-15T01:42:21;3.50;90.20
1361;DHT22;674;45.552;-122.600;2024-02-15T01:44:49;3.50;92.40
1361;DHT22;674;45.552;-122.600;2024-02-15T01:47:18;3.40;94.80
1361;DHT22;674;45.552;-122.600;2024-02-15T01:49:51;3.40;96.30
1361;DHT22;674;45.552;-122.600;2024-02-15T01:52:21;3.40;98.20
1361;DHT22;674;45.552;-122.600;2024-02-15T01:54:54;3.60;99.90
1361;DHT22;674;45.552;-122.600;2024-02-15T01:57:22;3.50;99.80
1361;DHT22;674;45.552;-122.600;2024-02-15T01:59:51;3.40;99.90
1361;DHT22;674;45.552;-122.600;2024-02-15T02:02:21;3.50;99.90
1361;DHT22;674;45.552;-122.600;2024-02-15T02:04:50;3.60;97.80
1361;DHT22;674;45.552;-122.600;2024-02-15T02:07:19;3.70;94.60
1361;DHT22;674;45.552;-122.600;2024-02-15T02:09:48;3.70;96.50
1361;DHT22;674;45.552;-122.600;2024-02-15T02:12:17;3.60;95.00
1361;DHT22;674;45.552;-122.600;2024-02-15T02:14:46;3.50;90.30
1361;DHT22;674;45.552;-122.600;2024-02-15T02:17:14;3.60;94.40
1361;DHT22;674;45.552;-122.600;2024-02-15T02:19:43;3.60;94.40
1361;DHT22;674;45.552;-122.600;2024-02-15T02:22:12;3.60;94.00
1361;DHT22;674;45.552;-122.600;2024-02-15T02:27:20;3.50;89.00
1361;DHT22;674;45.552;-122.600;2024-02-15T02:29:49;3.60;86.90
1361;DHT22;674;45.552;-122.600;2024-02-15T02:32:18;3.50;89.60
1361;DHT22;674;45.552;-122.600;2024-02-15T02:34:47;3.60;85.60
1361;DHT22;674;45.552;-122.600;2024-02-15T02:37:15;3.80;85.80
1361;DHT22;674;45.552;-122.600;2024-02-15T02:39:44;4.00;81.60
1361;DHT22;674;45.552;-122.600;2024-02-15T02:42:13;3.60;74.90
1361;DHT22;674;45.552;-122.600;2024-02-15T02:44:41;4.00;78.40
1361;DHT22;674;45.552;-122.600;2024-02-15T02:47:10;3.60;76.20
1361;DHT22;674;45.552;-122.600;2024-02-15T02:49:39;3.60;78.90
1361;DHT22;674;45.552;-122.600;2024-02-15T02:52:08;3.50;82.10
1361;DHT22;674;45.552;-122.600;2024-02-15T02:54:37;3.60;86.00
1361;DHT22;674;45.552;-122.600;2024-02-15T02:57:06;3.70;91.50
1361;DHT22;674;45.552;-122.600;2024-02-15T02:59:35;3.60;92.50
1361;DHT22;674;45.552;-122.600;2024-02-15T03:02:03;3.60;91.90
1361;DHT22;674;45.552;-122.600;2024-02-15T03:04:32;3.50;92.20
1361;DHT22;674;45.552;-122.600;2024-02-15T03:07:01;3.60;92.80
1361;DHT22;674;45.552;-122.600;2024-02-15T03:09:29;3.70;94.20
1361;DHT22;674;45.552;-122.600;2024-02-15T03:11:59;3.90;96.00
1361;DHT22;674;45.552;-122.600;2024-02-15T03:14:29;3.60;88.80
1361;DHT22;674;45.552;-122.600;2024-02-15T03:16:59;3.70;93.80
1361;DHT22;674;45.552;-122.600;2024-02-15T03:19:27;3.90;93.80
1361;DHT22;674;45.552;-122.600;2024-02-15T03:21:56;3.60;95.00
1361;DHT22;674;45.552;-122.600;2024-02-15T03:24:24;3.60;98.20
1361;DHT22;674;45.552;-122.600;2024-02-15T03:26:53;3.70;96.10
1361;DHT22;674;45.552;-122.600;2024-02-15T03:29:23;3.80;93.40
1361;DHT22;674;45.552;-122.600;2024-02-15T03:31:53;3.50;85.00
1361;DHT22;674;45.552;-122.600;2024-02-15T03:34:22;3.40;90.70
1361;DHT22;674;45.552;-122.600;2024-02-15T03:36:52;3.40;92.30
1361;DHT22;674;45.552;-122.600;2024-02-15T03:39:22;3.60;93.50
1361;DHT22;674;45.552;-122.600;2024-02-15T03:41:51;3.70;95.20
1361;DHT22;674;45.552;-122.600;2024-02-15T03:44:23;3.40;99.70
1361;DHT22;674;45.552;-122.600;2024-02-15T03:46:54;3.60;97.40
1361;DHT22;674;45.552;-122.600;2024-02-15T03:49:25;3.60;99.90
1361;DHT22;674;45.552;-122.600;2024-02-15T03:51:54;3.50;99.40
1361;DHT22;674;45.552;-122.600;2024-02-15T03:54:23;3.60;99.90
1361;DHT22;674;45.552;-122.600;2024-02-15T03:56:52;3.50;99.90
1361;DHT22;674;45.552;-122.600;2024-02-15T03:59:21;3.50;99.90
1361;DHT22;674;45.552;-122.600;2024-02-15T04:01:55;3.50;99.90
1361;DHT22;674;45.552;-122.600;2024-02-15T04:04:24;3.50;99.90
1361;DHT22;674;45.552;-122.600;2024-02-15T04:06:52;3.60;99.90
1361;DHT22;674;45.552;-122.600;2024-02-15T04:09:21;3.50;99.90
1361;DHT22;674;45.552;-122.600;2024-02-15T04:11:50;3.60;99.90
1361;DHT22;674;45.552;-122.600;2024-02-15T04:14:21;3.60;99.90
1361;DHT22;674;45.552;-122.600;2024-02-15T04:16:50;3.60;99.90
1361;DHT22;674;45.552;-122.600;2024-02-15T04:19:18;3.60;99.90
1361;DHT22;674;45.552;-122.600;2024-02-15T04:21:50;3.60;99.90
1361;DHT22;674;45.552;-122.600;2024-02-15T04:24:18;3.60;99.90
1361;DHT22;674;45.552;-122.600;2024-02-15T04:26:48;3.60;99.90
1361;DHT22;674;45.552;-122.600;2024-02-15T04:29:17;3.40;99.90
1361;DHT22;674;45.552;-122.600;2024-02-15T04:31:48;3.40;99.90
1361;DHT22;674;45.552;-122.600;2024-02-15T04:34:17;3.50;99.90
1361;DHT22;674;45.552;-122.600;2024-02-15T04:36:47;3.80;99.90
1361;DHT22;674;45.552;-122.600;2024-02-15T04:39:23;3.60;99.90
1361;DHT22;674;45.552;-122.600;2024-02-15T04:41:52;3.50;99.90
1361;DHT22;674;45.552;-122.600;2024-02-15T04:44:21;3.60;99.90
1361;DHT22;674;45.552;-122.600;2024-02-15T04:46:50;3.40;99.90
1361;DHT22;674;45.552;-122.600;2024-02-15T04:49:19;3.50;99.90
1361;DHT22;674;45.552;-122.600;2024-02-15T04:51:47;3.40;99.90
1361;DHT22;674;45.552;-122.600;2024-02-15T04:54:16;3.50;99.90
1361;DHT22;674;45.552;-122.600;2024-02-15T04:56:46;3.50;99.90
1361;DHT22;674;45.552;-122.600;2024-02-15T04:59:14;3.50;99.90
1361;DHT22;674;45.552;-122.600;2024-02-15T05:01:43;3.60;99.90
1361;DHT22;674;45.552;-122.600;2024-02-15T05:04:13;3.40;99.90
1361;DHT22;674;45.552;-122.600;2024-02-15T05:06:41;3.50;99.90
1361;DHT22;674;45.552;-122.600;2024-02-15T05:09:10;3.60;99.90
1361;DHT22;674;45.552;-122.600;2024-02-15T05:11:40;3.60;99.90
1361;DHT22;674;45.552;-122.600;2024-02-15T05:14:16;3.60;99.90
1361;DHT22;674;45.552;-122.600;2024-02-15T05:16:49;3.40;99.90
1361;DHT22;674;45.552;-122.600;2024-02-15T05:19:18;3.30;99.90
1361;DHT22;674;45.552;-122.600;2024-02-15T05:21:47;3.40;99.90
1361;DHT22;674;45.552;-122.600;2024-02-15T05:24:16;3.30;99.90
1361;DHT22;674;45.552;-122.600;2024-02-15T05:26:45;3.40;99.90
1361;DHT22;674;45.552;-122.600;2024-02-15T05:29:18;3.50;99.90
1361;DHT22;674;45.552;-122.600;2024-02-15T05:31:48;3.60;99.90
1361;DHT22;674;45.552;-122.600;2024-02-15T05:34:19;3.60;99.90
1361;DHT22;674;45.552;-122.600;2024-02-15T05:36:48;3.30;99.90
1361;DHT22;674;45.552;-122.600;2024-02-15T05:39:17;3.40;99.90
1361;DHT22;674;45.552;-122.600;2024-02-15T05:41:49;3.10;99.90
1361;DHT22;674;45.552;-122.600;2024-02-15T05:44:18;3.50;99.90
1361;DHT22;674;45.552;-122.600;2024-02-15T05:46:48;3.30;99.90
1361;DHT22;674;45.552;-122.600;2024-02-15T05:49:17;3.50;99.90
1361;DHT22;674;45.552;-122.600;2024-02-15T05:51:45;3.50;99.90
1361;DHT22;674;45.552;-122.600;2024-02-15T05:54:15;3.70;99.90
1361;DHT22;674;45.552;-122.600;2024-02-15T05:56:45;3.50;99.90
1361;DHT22;674;45.552;-122.600;2024-02-15T05:59:20;3.40;99.90
1361;DHT22;674;45.552;-122.600;2024-02-15T06:01:48;3.30;99.90
1361;DHT22;674;45.552;-122.600;2024-02-15T06:04:17;3.20;99.90
1361;DHT22;674;45.552;-122.600;2024-02-15T06:06:46;3.30;99.90
1361;DHT22;674;45.552;-122.600;2024-02-15T06:09:18;3.40;99.90
1361;DHT22;674;45.552;-122.600;2024-02-15T06:11:50;3.70;99.90
1361;DHT22;674;45.552;-122.600;2024-02-15T06:14:22;3.50;99.90
1361;DHT22;674;45.552;-122.600;2024-02-15T06:16:51;3.50;99.90
1361;DHT22;674;45.552;-122.600;2024-02-15T06:19:20;3.50;99.90
1361;DHT22;674;45.552;-122.600;2024-02-15T06:21:50;3.40;99.90
1361;DHT22;674;45.552;-122.600;2024-02-15T06:24:18;3.50;99.90
1361;DHT22;674;45.552;-122.600;2024-02-15T06:26:47;3.30;99.90
1361;DHT22;674;45.552;-122.600;2024-02-15T06:29:19;3.40;99.90
1361;DHT22;674;45.552;-122.600;2024-02-15T06:32:06;3.30;99.90
1361;DHT22;674;45.552;-122.600;2024-02-15T06:34:53;3.40;99.90
1361;DHT22;674;45.552;-122.600;2024-02-15T06:37:40;3.40;99.90
1361;DHT22;674;45.552;-122.600;2024-02-15T06:40:26;3.50;99.90
1361;DHT22;674;45.552;-122.600;2024-02-15T06:42:56;3.50;99.90
1361;DHT22;674;45.552;-122.600;2024-02-15T06:45:25;3.70;99.90
1361;DHT22;674;45.552;-122.600;2024-02-15T06:47:54;3.50;99.90
1361;DHT22;674;45.552;-122.600;2024-02-15T06:50:23;3.60;99.90
1361;DHT22;674;45.552;-122.600;2024-02-15T06:52:54;3.40;99.90
1361;DHT22;674;45.552;-122.600;2024-02-15T06:55:24;3.30;99.90
1361;DHT22;674;45.552;-122.600;2024-02-15T06:57:53;3.50;99.90
1361;DHT22;674;45.552;-122.600;2024-02-15T07:00:23;3.50;99.90
1361;DHT22;674;45.552;-122.600;2024-02-15T07:02:53;3.50;99.90
1361;DHT22;674;45.552;-122.600;2024-02-15T07:05:22;3.50;99.90
1361;DHT22;674;45.552;-122.600;2024-02-15T07:07:51;3.60;99.90
1361;DHT22;674;45.552;-122.600;2024-02-15T07:10:20;3.60;99.90
1361;DHT22;674;45.552;-122.600;2024-02-15T07:12:49;3.60;99.90
1361;DHT22;674;45.552;-122.600;2024-02-15T07:15:18;3.50;99.90
1361;DHT22;674;45.552;-122.600;2024-02-15T07:17:46;3.60;99.90
1361;DHT22;674;45.552;-122.600;2024-02-15T07:20:16;3.50;99.90
1361;DHT22;674;45.552;-122.600;2024-02-15T07:22:45;3.60;99.90
1361;DHT22;674;45.552;-122.600;2024-02-15T07:25:13;3.60;99.90
1361;DHT22;674;45.552;-122.600;2024-02-15T07:27:42;3.60;99.90
1361;DHT22;674;45.552;-122.600;2024-02-15T07:30:11;3.80;99.90
1361;DHT22;674;45.552;-122.600;2024-02-15T07:32:40;3.60;99.90
1361;DHT22;674;45.552;-122.600;2024-02-15T07:35:08;3.80;99.90
1361;DHT22;674;45.552;-122.600;2024-02-15T07:37:40;3.70;99.90
1361;DHT22;674;45.552;-122.600;2024-02-15T07:40:19;3.90;99.90
1361;DHT22;674;45.552;-122.600;2024-02-15T07:42:51;3.80;99.90
1361;DHT22;674;45.552;-122.600;2024-02-15T07:45:20;3.80;99.90
1361;DHT22;674;45.552;-122.600;2024-02-15T07:47:48;3.80;99.90
1361;DHT22;674;45.552;-122.600;2024-02-15T07:50:18;3.70;99.90
1361;DHT22;674;45.552;-122.600;2024-02-15T07:52:50;3.80;99.90
1361;DHT22;674;45.552;-122.600;2024-02-15T07:55:19;4.00;99.90
1361;DHT22;674;45.552;-122.600;2024-02-15T07:57:48;3.90;99.90
1361;DHT22;674;45.552;-122.600;2024-02-15T08:00:16;3.70;99.90
1361;DHT22;674;45.552;-122.600;2024-02-15T08:02:45;4.00;99.90
1361;DHT22;674;45.552;-122.600;2024-02-15T08:05:14;4.00;99.90
1361;DHT22;674;45.552;-122.600;2024-02-15T08:07:44;3.80;99.90
1361;DHT22;674;45.552;-122.600;2024-02-15T08:10:13;3.90;99.90
1361;DHT22;674;45.552;-122.600;2024-02-15T08:12:43;3.80;99.90
1361;DHT22;674;45.552;-122.600;2024-02-15T08:15:12;3.90;99.90
1361;DHT22;674;45.552;-122.600;2024-02-15T08:17:42;3.80;99.90
1361;DHT22;674;45.552;-122.600;2024-02-15T08:20:15;4.00;99.90
1361;DHT22;674;45.552;-122.600;2024-02-15T08:22:49;4.20;99.90
1361;DHT22;674;45.552;-122.600;2024-02-15T08:25:18;3.90;99.90
1361;DHT22;674;45.552;-122.600;2024-02-15T08:27:50;3.90;99.90
1361;DHT22;674;45.552;-122.600;2024-02-15T08:30:18;3.90;99.90
1361;DHT22;674;45.552;-122.600;2024-02-15T08:32:51;3.80;99.90
1361;DHT22;674;45.552;-122.600;2024-02-15T08:35:22;3.80;99.90
1361;DHT22;674;45.552;-122.600;2024-02-15T08:37:51;3.80;99.90
1361;DHT22;674;45.552;-122.600;2024-02-15T08:40:21;4.00;99.90
1361;DHT22;674;45.552;-122.600;2024-02-15T08:42:53;4.00;99.90
1361;DHT22;674;45.552;-122.600;2024-02-15T08:45:22;4.00;99.90
1361;DHT22;674;45.552;-122.600;2024-02-15T08:47:51;4.00;99.90
1361;DHT22;674;45.552;-122.600;2024-02-15T08:50:22;4.00;99.90
1361;DHT22;674;45.552;-122.600;2024-02-15T08:52:51;4.00;99.90
1361;DHT22;674;45.552;-122.600;2024-02-15T08:55:20;3.80;99.90
1361;DHT22;674;45.552;-122.600;2024-02-15T08:57:52;4.00;99.90
1361;DHT22;674;45.552;-122.600;2024-02-15T09:00:22;4.20;99.90
1361;DHT22;674;45.552;-122.600;2024-02-15T09:02:52;3.80;99.90
1361;DHT22;674;45.552;-122.600;2024-02-15T09:05:21;3.80;99.90
1361;DHT22;674;45.552;-122.600;2024-02-15T09:07:50;4.10;99.90
1361;DHT22;674;45.552;-122.600;2024-02-15T09:10:19;3.80;99.90
1361;DHT22;674;45.552;-122.600;2024-02-15T09:12:50;4.00;99.90
1361;DHT22;674;45.552;-122.600;2024-02-15T09:15:19;3.80;99.90
1361;DHT22;674;45.552;-122.600;2024-02-15T09:17:47;4.10;99.90
1361;DHT22;674;45.552;-122.600;2024-02-15T09:20:17;3.80;99.90
1361;DHT22;674;45.552;-122.600;2024-02-15T09:22:51;3.80;99.90
1361;DHT22;674;45.552;-122.600;2024-02-15T09:25:23;3.70;99.90
1361;DHT22;674;45.552;-122.600;2024-02-15T09:27:52;3.70;99.90
1361;DHT22;674;45.552;-122.600;2024-02-15T09:30:23;4.00;99.90
1361;DHT22;674;45.552;-122.600;2024-02-15T09:32:54;4.00;99.90
1361;DHT22;674;45.552;-122.600;2024-02-15T09:35:23;3.80;99.90
1361;DHT22;674;45.552;-122.600;2024-02-15T09:37:52;3.80;99.90
1361;DHT22;674;45.552;-122.600;2024-02-15T09:40:23;3.90;99.90
1361;DHT22;674;45.552;-122.600;2024-02-15T09:42:57;3.80;99.90
1361;DHT22;674;45.552;-122.600;2024-02-15T09:45:27;3.80;99.90
1361;DHT22;674;45.552;-122.600;2024-02-15T09:48:02;3.60;99.90
1361;DHT22;674;45.552;-122.600;2024-02-15T09:50:34;3.80;99.90
1361;DHT22;674;45.552;-122.600;2024-02-15T09:53:04;3.50;99.90
1361;DHT22;674;45.552;-122.600;2024-02-15T09:55:35;3.60;99.90
1361;DHT22;674;45.552;-122.600;2024-02-15T09:58:03;3.50;99.90
1361;DHT22;674;45.552;-122.600;2024-02-15T10:00:34;3.60;99.90
1361;DHT22;674;45.552;-122.600;2024-02-15T10:03:06;3.70;99.90
1361;DHT22;674;45.552;-122.600;2024-02-15T10:05:35;3.80;99.90
1361;DHT22;674;45.552;-122.600;2024-02-15T10:08:04;3.50;99.90
1361;DHT22;674;45.552;-122.600;2024-02-15T10:10:35;3.80;99.90
1361;DHT22;674;45.552;-122.600;2024-02-15T10:13:03;3.40;99.90
1361;DHT22;674;45.552;-122.600;2024-02-15T10:15:36;3.40;99.90
1361;DHT22;674;45.552;-122.600;2024-02-15T10:18:09;3.40;99.90
1361;DHT22;674;45.552;-122.600;2024-02-15T10:20:41;3.50;99.90
1361;DHT22;674;45.552;-122.600;2024-02-15T10:23:15;3.60;99.90
1361;DHT22;674;45.552;-122.600;2024-02-15T10:25:46;3.60;99.90
1361;DHT22;674;45.552;-122.600;2024-02-15T10:28:21;3.50;99.90
1361;DHT22;674;45.552;-122.600;2024-02-15T10:30:51;3.50;99.90
1361;DHT22;674;45.552;-122.600;2024-02-15T10:33:29;3.50;99.90
1361;DHT22;674;45.552;-122.600;2024-02-15T10:36:09;3.70;99.90
1361;DHT22;674;45.552;-122.600;2024-02-15T10:38:39;3.40;99.90
1361;DHT22;674;45.552;-122.600;2024-02-15T10:41:08;3.50;99.90
1361;DHT22;674;45.552;-122.600;2024-02-15T10:43:37;3.60;99.90
1361;DHT22;674;45.552;-122.600;2024-02-15T10:46:12;3.60;99.90
1361;DHT22;674;45.552;-122.600;2024-02-15T10:48:41;3.60;99.90
1361;DHT22;674;45.552;-122.600;2024-02-15T10:51:14;3.60;99.90
1361;DHT22;674;45.552;-122.600;2024-02-15T10:53:57;3.90;99.90
1361;DHT22;674;45.552;-122.600;2024-02-15T10:56:27;3.60;99.90
1361;DHT22;674;45.552;-122.600;2024-02-15T11:01:45;3.50;99.90
1361;DHT22;674;45.552;-122.600;2024-02-15T11:04:20;3.60;99.90
1361;DHT22;674;45.552;-122.600;2024-02-15T11:06:55;3.80;99.90
1361;DHT22;674;45.552;-122.600;2024-02-15T11:09:25;3.50;99.90
1361;DHT22;674;45.552;-122.600;2024-02-15T11:11:57;3.80;99.90
1361;DHT22;674;45.552;-122.600;2024-02-15T11:14:27;4.00;99.90
1361;DHT22;674;45.552;-122.600;2024-02-15T11:16:57;3.90;99.90
1361;DHT22;674;45.552;-122.600;2024-02-15T11:22:14;3.70;99.90
1361;DHT22;674;45.552;-122.600;2024-02-15T11:24:51;3.80;99.90
1361;DHT22;674;45.552;-122.600;2024-02-15T11:27:27;3.70;99.90
1361;DHT22;674;45.552;-122.600;2024-02-15T11:30:01;3.70;99.90
1361;DHT22;674;45.552;-122.600;2024-02-15T11:32:45;3.80;99.90
1361;DHT22;674;45.552;-122.600;2024-02-15T11:35:20;4.00;99.90
1361;DHT22;674;45.552;-122.600;2024-02-15T11:37:55;3.70;99.90
1361;DHT22;674;45.552;-122.600;2024-02-15T11:40:28;3.80;99.90
1361;DHT22;674;45.552;-122.600;2024-02-15T11:43:00;3.70;99.90
1361;DHT22;674;45.552;-122.600;2024-02-15T11:45:29;3.80;99.90
1361;DHT22;674;45.552;-122.600;2024-02-15T11:48:01;3.80;99.90
1361;DHT22;674;45.552;-122.600;2024-02-15T11:50:34;3.40;99.90
1361;DHT22;674;45.552;-122.600;2024-02-15T11:53:09;3.70;99.90
1361;DHT22;674;45.552;-122.600;2024-02-15T11:55:40;3.80;99.90
1361;DHT22;674;45.552;-122.600;2024-02-15T11:58:09;3.70;99.90
1361;DHT22;674;45.552;-122.600;2024-02-15T12:00:39;3.80;99.90
1361;DHT22;674;45.552;-122.600;2024-02-15T12:03:26;3.60;99.90
1361;DHT22;674;45.552;-122.600;2024-02-15T12:06:30;3.90;99.90
1361;DHT22;674;45.552;-122.600;2024-02-15T12:09:19;3.80;99.90
1361;DHT22;674;45.552;-122.600;2024-02-15T12:12:09;3.80;99.90
1361;DHT22;674;45.552;-122.600;2024-02-15T12:15:02;3.80;99.90
1361;DHT22;674;45.552;-122.600;2024-02-15T12:17:50;3.50;99.90
1361;DHT22;674;45.552;-122.600;2024-02-15T12:20:56;3.60;99.90
1361;DHT22;674;45.552;-122.600;2024-02-15T12:23:25;3.60;99.90
1361;DHT22;674;45.552;-122.600;2024-02-15T12:25:54;3.60;99.90
1361;DHT22;674;45.552;-122.600;2024-02-15T12:28:22;3.60;99.90
1361;DHT22;674;45.552;-122.600;2024-02-15T12:30:55;3.50;99.90
1361;DHT22;674;45.552;-122.600;2024-02-15T12:33:27;3.50;99.90
1361;DHT22;674;45.552;-122.600;2024-02-15T12:36:05;3.60;99.90
1361;DHT22;674;45.552;-122.600;2024-02-15T12:38:35;3.60;99.90
1361;DHT22;674;45.552;-122.600;2024-02-15T12:41:21;3.60;99.90
1361;DHT22;674;45.552;-122.600;2024-02-15T12:43:53;3.80;99.90
1361;DHT22;674;45.552;-122.600;2024-02-15T12:46:22;3.40;99.90
1361;DHT22;674;45.552;-122.600;2024-02-15T12:48:51;3.60;99.90
1361;DHT22;674;45.552;-122.600;2024-02-15T12:51:21;3.80;99.90
1361;DHT22;674;45.552;-122.600;2024-02-15T12:53:50;4.00;99.90
1361;DHT22;674;45.552;-122.600;2024-02-15T12:56:21;4.00;99.90
1361;DHT22;674;45.552;-122.600;2024-02-15T12:58:52;4.00;99.90
1361;DHT22;674;45.552;-122.600;2024-02-15T13:01:20;3.80;99.90
1361;DHT22;674;45.552;-122.600;2024-02-15T13:03:49;3.90;99.90
1361;DHT22;674;45.552;-122.600;2024-02-15T13:06:19;3.80;99.90
1361;DHT22;674;45.552;-122.600;2024-02-15T13:08:51;3.70;99.90
1361;DHT22;674;45.552;-122.600;2024-02-15T13:11:20;3.80;99.90
1361;DHT22;674;45.552;-122.600;2024-02-15T13:13:49;4.00;99.90
1361;DHT22;674;45.552;-122.600;2024-02-15T13:16:18;3.80;99.90
1361;DHT22;674;45.552;-122.600;2024-02-15T13:18:46;3.70;99.90
1361;DHT22;674;45.552;-122.600;2024-02-15T13:21:15;3.70;99.90
1361;DHT22;674;45.552;-122.600;2024-02-15T13:23:45;3.80;99.90
1361;DHT22;674;45.552;-122.600;2024-02-15T13:26:14;3.70;99.90
1361;DHT22;674;45.552;-122.600;2024-02-15T13:28:42;3.80;99.90
1361;DHT22;674;45.552;-122.600;2024-02-15T13:31:12;3.70;99.90
1361;DHT22;674;45.552;-122.600;2024-02-15T13:33:41;3.80;99.90
1361;DHT22;674;45.552;-122.600;2024-02-15T13:36:09;4.10;99.90
1361;DHT22;674;45.552;-122.600;2024-02-15T13:38:39;3.80;99.90
1361;DHT22;674;45.552;-122.600;2024-02-15T13:41:07;3.80;99.90
1361;DHT22;674;45.552;-122.600;2024-02-15T13:43:36;3.90;99.90
1361;DHT22;674;45.552;-122.600;2024-02-15T13:46:05;3.80;99.90
1361;DHT22;674;45.552;-122.600;2024-02-15T13:48:33;3.60;99.90
1361;DHT22;674;45.552;-122.600;2024-02-15T13:51:02;3.80;99.90
1361;DHT22;674;45.552;-122.600;2024-02-15T13:53:32;4.00;99.90
1361;DHT22;674;45.552;-122.600;2024-02-15T13:56:01;4.00;99.90
1361;DHT22;674;45.552;-122.600;2024-02-15T13:58:30;4.00;99.90
1361;DHT22;674;45.552;-122.600;2024-02-15T14:00:59;3.70;99.90
1361;DHT22;674;45.552;-122.600;2024-02-15T14:03:31;3.90;99.90
1361;DHT22;674;45.552;-122.600;2024-02-15T14:06:01;3.90;99.90
1361;DHT22;674;45.552;-122.600;2024-02-15T14:08:31;3.80;99.90
1361;DHT22;674;45.552;-122.600;2024-02-15T14:10:59;4.30;99.90
1361;DHT22;674;45.552;-122.600;2024-02-15T14:13:29;4.10;99.90
1361;DHT22;674;45.552;-122.600;2024-02-15T14:15:58;4.10;99.90
1361;DHT22;674;45.552;-122.600;2024-02-15T14:18:28;4.00;99.90
1361;DHT22;674;45.552;-122.600;2024-02-15T14:20:57;4.00;99.90
1361;DHT22;674;45.552;-122.600;2024-02-15T14:23:28;4.10;99.90
1361;DHT22;674;45.552;-122.600;2024-02-15T14:25:56;4.00;99.90
1361;DHT22;674;45.552;-122.600;2024-02-15T14:28:28;4.10;99.90
1361;DHT22;674;45.552;-122.600;2024-02-15T14:30:57;4.10;99.90
1361;DHT22;674;45.552;-122.600;2024-02-15T14:33:43;4.10;99.90
1361;DHT22;674;45.552;-122.600;2024-02-15T14:36:12;4.10;99.90
1361;DHT22;674;45.552;-122.600;2024-02-15T14:38:43;4.20;99.90
1361;DHT22;674;45.552;-122.600;2024-02-15T14:41:12;4.10;99.90
1361;DHT22;674;45.552;-122.600;2024-02-15T14:43:41;4.10;99.90
1361;DHT22;674;45.552;-122.600;2024-02-15T14:46:11;3.90;99.90
1361;DHT22;674;45.552;-122.600;2024-02-15T14:48:40;4.10;99.90
1361;DHT22;674;45.552;-122.600;2024-02-15T14:51:09;3.90;99.90
1361;DHT22;674;45.552;-122.600;2024-02-15T14:53:42;3.80;99.90
1361;DHT22;674;45.552;-122.600;2024-02-15T14:56:12;3.90;99.90
1361;DHT22;674;45.552;-122.600;2024-02-15T14:58:41;3.80;99.60
1361;DHT22;674;45.552;-122.600;2024-02-15T15:01:11;3.80;99.30
1361;DHT22;674;45.552;-122.600;2024-02-15T15:03:41;3.80;99.90
1361;DHT22;674;45.552;-122.600;2024-02-15T15:06:11;3.80;99.90
1361;DHT22;674;45.552;-122.600;2024-02-15T15:09:02;4.00;96.20
1361;DHT22;674;45.552;-122.600;2024-02-15T15:11:49;3.80;99.40
1361;DHT22;674;45.552;-122.600;2024-02-15T15:14:37;3.70;99.70
1361;DHT22;674;45.552;-122.600;2024-02-15T15:17:06;3.90;96.60
1361;DHT22;674;45.552;-122.600;2024-02-15T15:19:34;3.90;96.70
1361;DHT22;674;45.552;-122.600;2024-02-15T15:22:05;3.80;97.20
1361;DHT22;674;45.552;-122.600;2024-02-15T15:24:34;3.80;99.20
1361;DHT22;674;45.552;-122.600;2024-02-15T15:27:02;3.90;98.50
1361;DHT22;674;45.552;-122.600;2024-02-15T15:29:33;3.90;99.90
1361;DHT22;674;45.552;-122.600;2024-02-15T15:32:02;3.80;99.30
1361;DHT22;674;45.552;-122.600;2024-02-15T15:34:30;3.50;99.90
1361;DHT22;674;45.552;-122.600;2024-02-15T15:37:00;3.60;99.90
1361;DHT22;674;45.552;-122.600;2024-02-15T15:39:29;3.80;99.90
1361;DHT22;674;45.552;-122.600;2024-02-15T15:42:01;3.70;99.90
1361;DHT22;674;45.552;-122.600;2024-02-15T15:44:30;3.80;99.90
1361;DHT22;674;45.552;-122.600;2024-02-15T15:46:59;4.00;99.90
1361;DHT22;674;45.552;-122.600;2024-02-15T15:49:28;3.70;99.50
1361;DHT22;674;45.552;-122.600;2024-02-15T15:52:00;3.80;98.90
1361;DHT22;674;45.552;-122.600;2024-02-15T15:54:29;3.60;98.90
1361;DHT22;674;45.552;-122.600;2024-02-15T15:56:57;3.70;99.90
1361;DHT22;674;45.552;-122.600;2024-02-15T15:59:26;3.80;97.50
1361;DHT22;674;45.552;-122.600;2024-02-15T16:01:55;3.80;98.50
1361;DHT22;674;45.552;-122.600;2024-02-15T16:04:23;3.90;99.90
1361;DHT22;674;45.552;-122.600;2024-02-15T16:06:53;3.80;99.90
1361;DHT22;674;45.552;-122.600;2024-02-15T16:09:21;3.70;99.90
1361;DHT22;674;45.552;-122.600;2024-02-15T16:11:51;3.80;99.90
1361;DHT22;674;45.552;-122.600;2024-02-15T16:14:21;4.00;99.90